sensor_id;sensor_type;location;lat;lon;timestamp;pressure;altitude;pressure_sealevel;temperature;humidity
13695;BME280;6919;52.344;14.518;2022-12-05T00:02:02;101002.00;;;6.54;100.00
13695;BME280;6919;52.344;14.518;2022-12-05T00:04:30;100996.56;;;6.55;100.00
13695;BME280;6919;52.344;14.518;2022-12-05T00:06:58;100991.47;;;6.63;100.00
13695;BME280;6919;52.344;14.518;2022-12-05T00:09:27;100991.72;;;6.60;100.00
13695;BME280;6919;52.344;14.518;2022-12-05T00:11:55;100992.56;;;6.50;100.00
13695;BME280;6919;52.344;14.518;2022-12-05T00:14:23;100993.03;;;6.44;100.00
13695;BME280;6919;52.344;14.518;2022-12-05T00:16:51;100989.50;;;6.43;100.00
13695;BME280;6919;52.344;14.518;2022-12-05T00:19:21;100992.78;;;6.36;100.00
13695;BME280;6919;52.344;14.518;2022-12-05T00:21:50;100994.22;;;6.40;100.00
13695;BME280;6919;52.344;14.518;2022-12-05T00:24:18;100989.13;;;6.37;100.00
13695;BME280;6919;52.344;14.518;2022-12-05T00:26:46;100983.56;;;6.40;100.00
13695;BME280;6919;52.344;14.518;2022-12-05T00:29:15;100977.03;;;6.33;100.00
13695;BME280;6919;52.344;14.518;2022-12-05T00:31:44;100984.03;;;6.34;100.00
13695;BME280;6919;52.344;14.518;2022-12-05T00:34:12;100977.75;;;6.35;100.00
13695;BME280;6919;52.344;14.518;2022-12-05T00:36:42;100989.00;;;6.27;100.00
13695;BME280;6919;52.344;14.518;2022-12-05T00:39:11;100995.88;;;6.19;100.00
13695;BME280;6919;52.344;14.518;2022-12-05T00:41:42;100992.78;;;6.36;100.00
13695;BME280;6919;52.344;14.518;2022-12-05T00:44:11;100989.59;;;6.31;100.00
13695;BME280;6919;52.344;14.518;2022-12-05T00:46:40;100984.03;;;6.34;100.00
13695;BME280;6919;52.344;14.518;2022-12-05T00:49:11;100992.13;;;6.32;100.00
13695;BME280;6919;52.344;14.518;2022-12-05T00:51:42;100982.13;;;6.36;100.00
13695;BME280;6919;52.344;14.518;2022-12-05T00:54:14;100985.00;;;6.33;100.00
13695;BME280;6919;52.344;14.518;2022-12-05T00:56:44;100986.25;;;6.40;100.00
13695;BME280;6919;52.344;14.518;2022-12-05T00:59:18;100991.69;;;6.38;100.00
13695;BME280;6919;52.344;14.518;2022-12-05T01:01:48;100986.69;;;6.23;100.00
13695;BME280;6919;52.344;14.518;2022-12-05T01:04:19;100993.22;;;6.30;100.00
13695;BME280;6919;52.344;14.518;2022-12-05T01:06:53;100990.09;;;6.25;100.00
13695;BME280;6919;52.344;14.518;2022-12-05T01:09:22;100991.53;;;6.29;100.00
13695;BME280;6919;52.344;14.518;2022-12-05T01:11:51;100988.38;;;6.35;100.00
13695;BME280;6919;52.344;14.518;2022-12-05T01:14:23;100988.75;;;6.30;100.00
13695;BME280;6919;52.344;14.518;2022-12-05T01:16:54;100979.78;;;6.20;100.00
13695;BME280;6919;52.344;14.518;2022-12-05T01:19:26;100976.16;;;6.21;100.00
13695;BME280;6919;52.344;14.518;2022-12-05T01:21:58;100982.59;;;6.30;100.00
13695;BME280;6919;52.344;14.518;2022-12-05T01:24:27;100980.16;;;6.38;100.00
13695;BME280;6919;52.344;14.518;2022-12-05T01:26:56;100986.25;;;6.40;100.00
13695;BME280;6919;52.344;14.518;2022-12-05T01:29:25;100986.47;;;6.37;100.00
13695;BME280;6919;52.344;14.518;2022-12-05T01:31:53;100981.00;;;6.27;100.00
13695;BME280;6919;52.344;14.518;2022-12-05T01:34:22;100982.00;;;6.26;100.00
13695;BME280;6919;52.344;14.518;2022-12-05T01:36:50;100975.06;;;6.35;100.00
13695;BME280;6919;52.344;14.518;2022-12-05T01:39:20;100976.69;;;6.37;100.00
13695;BME280;6919;52.344;14.518;2022-12-05T01:41:49;100983.22;;;6.44;100.00
13695;BME280;6919;52.344;14.518;2022-12-05T01:44:59;100973.28;;;6.35;100.00
13695;BME280;6919;52.344;14.518;2022-12-05T01:47:32;100974.25;;;6.34;100.00
13695;BME280;6919;52.344;14.518;2022-12-05T01:50:03;100973.16;;;6.37;100.00
13695;BME280;6919;52.344;14.518;2022-12-05T01:52:33;100981.38;;;6.34;100.00
13695;BME280;6919;52.344;14.518;2022-12-05T01:55:09;100971.47;;;6.36;100.00
13695;BME280;6919;52.344;14.518;2022-12-05T01:57:39;100972.91;;;6.40;100.00
13695;BME280;6919;52.344;14.518;2022-12-05T02:00:12;100976.56;;;6.39;100.00
13695;BME280;6919;52.344;14.518;2022-12-05T02:02:46;100984.16;;;6.43;100.00
13695;BME280;6919;52.344;14.518;2022-12-05T02:05:21;100983.69;;;6.49;100.00
13695;BME280;6919;52.344;14.518;2022-12-05T02:07:51;100992.03;;;6.45;100.00
13695;BME280;6919;52.344;14.518;2022-12-05T02:10:21;100986.50;;;6.59;100.00
13695;BME280;6919;52.344;14.518;2022-12-05T02:12:51;100986.47;;;6.48;100.00
13695;BME280;6919;52.344;14.518;2022-12-05T02:15:38;100980.81;;;6.52;100.00
13695;BME280;6919;52.344;14.518;2022-12-05T02:18:24;100980.47;;;6.57;100.00
13695;BME280;6919;52.344;14.518;2022-12-05T02:21:14;100988.34;;;6.69;100.00
13695;BME280;6919;52.344;14.518;2022-12-05T02:24:11;100985.56;;;6.71;100.00
13695;BME280;6919;52.344;14.518;2022-12-05T02:27:06;100982.50;;;6.75;100.00
13695;BME280;6919;52.344;14.518;2022-12-05T02:30:09;100983.84;;;6.59;100.00
13695;BME280;6919;52.344;14.518;2022-12-05T02:32:50;100984.56;;;6.61;100.00
13695;BME280;6919;52.344;14.518;2022-12-05T02:35:39;100980.94;;;6.62;100.00
13695;BME280;6919;52.344;14.518;2022-12-05T02:38:20;100976.06;;;6.56;100.00
13695;BME280;6919;52.344;14.518;2022-12-05T02:41:02;100984.44;;;6.51;100.00
13695;BME280;6919;52.344;14.518;2022-12-05T02:43:37;100979.22;;;6.39;100.00
13695;BME280;6919;52.344;14.518;2022-12-05T02:46:12;100980.28;;;6.47;100.00
13695;BME280;6919;52.344;14.518;2022-12-05T02:48:45;100971.13;;;6.51;100.00
13695;BME280;6919;52.344;14.518;2022-12-05T02:51:21;100977.41;;;6.50;100.00
13695;BME280;6919;52.344;14.518;2022-12-05T02:53:52;100970.03;;;6.54;100.00
13695;BME280;6919;52.344;14.518;2022-12-05T02:56:23;100964.09;;;6.61;100.00
13695;BME280;6919;52.344;14.518;2022-12-05T02:58:54;100960.94;;;6.56;100.00
13695;BME280;6919;52.344;14.518;2022-12-05T03:01:28;100963.25;;;6.50;100.00
13695;BME280;6919;52.344;14.518;2022-12-05T03:04:00;100963.25;;;6.50;100.00
13695;BME280;6919;52.344;14.518;2022-12-05T03:06:34;100959.84;;;6.48;100.00
13695;BME280;6919;52.344;14.518;2022-12-05T03:09:08;100953.94;;;6.55;100.00
13695;BME280;6919;52.344;14.518;2022-12-05T03:11:46;100953.56;;;6.60;100.00
13695;BME280;6919;52.344;14.518;2022-12-05T03:14:22;100960.09;;;6.45;100.00
13695;BME280;6919;52.344;14.518;2022-12-05T03:16:59;100954.63;;;6.46;100.00
13695;BME280;6919;52.344;14.518;2022-12-05T03:19:34;100955.25;;;6.50;100.00
13695;BME280;6919;52.344;14.518;2022-12-05T03:22:09;100951.97;;;6.46;100.00
13695;BME280;6919;52.344;14.518;2022-12-05T03:24:41;100954.28;;;6.51;100.00
13695;BME280;6919;52.344;14.518;2022-12-05T03:27:20;100956.22;;;6.49;100.00
13695;BME280;6919;52.344;14.518;2022-12-05T03:29:55;100957.31;;;6.46;100.00
13695;BME280;6919;52.344;14.518;2022-12-05T03:32:32;100959.13;;;6.46;100.00
13695;BME280;6919;52.344;14.518;2022-12-05T03:35:09;100955.97;;;6.41;100.00
13695;BME280;6919;52.344;14.518;2022-12-05T03:37:48;100958.41;;;6.44;100.00
13695;BME280;6919;52.344;14.518;2022-12-05T03:40:31;100955.97;;;6.41;100.00
13695;BME280;6919;52.344;14.518;2022-12-05T03:43:15;100965.63;;;6.31;100.00
13695;BME280;6919;52.344;14.518;2022-12-05T03:45:52;100955.72;;;6.44;100.00
13695;BME280;6919;52.344;14.518;2022-12-05T03:48:33;100962.84;;;6.32;100.00
13695;BME280;6919;52.344;14.518;2022-12-05T03:51:05;100962.63;;;6.35;100.00
13695;BME280;6919;52.344;14.518;2022-12-05T03:53:41;100961.06;;;6.44;100.00
13695;BME280;6919;52.344;14.518;2022-12-05T03:56:19;100964.31;;;6.36;100.00
13695;BME280;6919;52.344;14.518;2022-12-05T03:58:54;100955.09;;;6.40;100.00
13695;BME280;6919;52.344;14.518;2022-12-05T04:01:28;100959.59;;;6.40;100.00
13695;BME280;6919;52.344;14.518;2022-12-05T04:04:07;100961.41;;;6.39;100.00
13695;BME280;6919;52.344;14.518;2022-12-05T04:06:39;100954.63;;;6.46;100.00
13695;BME280;6919;52.344;14.518;2022-12-05T04:09:15;100959.13;;;6.46;100.00
13695;BME280;6919;52.344;14.518;2022-12-05T04:11:50;100965.91;;;6.39;100.00
13695;BME280;6919;52.344;14.518;2022-12-05T04:14:27;100950.53;;;6.42;100.00
13695;BME280;6919;52.344;14.518;2022-12-05T04:17:01;100967.59;;;6.40;100.00
13695;BME280;6919;52.344;14.518;2022-12-05T04:19:39;100965.66;;;6.42;100.00
13695;BME280;6919;52.344;14.518;2022-12-05T04:22:27;100967.47;;;6.30;100.00
13695;BME280;6919;52.344;14.518;2022-12-05T04:24:58;100965.63;;;6.31;100.00
13695;BME280;6919;52.344;14.518;2022-12-05T04:28:07;100958.50;;;6.31;100.00
13695;BME280;6919;52.344;14.518;2022-12-05T04:30:53;100964.19;;;6.38;100.00
13695;BME280;6919;52.344;14.518;2022-12-05T04:33:30;100961.63;;;6.36;100.00
13695;BME280;6919;52.344;14.518;2022-12-05T04:36:11;100968.81;;;6.36;100.00
13695;BME280;6919;52.344;14.518;2022-12-05T04:38:45;100965.16;;;6.26;100.00
13695;BME280;6919;52.344;14.518;2022-12-05T04:41:21;100962.38;;;6.27;100.00
13695;BME280;6919;52.344;14.518;2022-12-05T04:43:54;100963.38;;;6.37;100.00
13695;BME280;6919;52.344;14.518;2022-12-05T04:46:26;100965.84;;;6.28;100.00
13695;BME280;6919;52.344;14.518;2022-12-05T04:48:59;100965.63;;;6.31;100.00
13695;BME280;6919;52.344;14.518;2022-12-05T04:51:33;100969.50;;;6.38;100.00
13695;BME280;6919;52.344;14.518;2022-12-05T04:54:12;100963.09;;;6.29;100.00
13695;BME280;6919;52.344;14.518;2022-12-05T04:56:45;100964.53;;;6.22;100.00
13695;BME280;6919;52.344;14.518;2022-12-05T04:59:16;100967.06;;;6.24;100.00
13695;BME280;6919;52.344;14.518;2022-12-05T05:01:49;100975.16;;;6.22;100.00
13695;BME280;6919;52.344;14.518;2022-12-05T05:04:25;100971.16;;;6.17;100.00
13695;BME280;6919;52.344;14.518;2022-12-05T05:06:55;100978.69;;;6.23;100.00
13695;BME280;6919;52.344;14.518;2022-12-05T05:09:23;100974.81;;;6.16;100.00
13695;BME280;6919;52.344;14.518;2022-12-05T05:11:52;100973.81;;;6.17;100.00
13695;BME280;6919;52.344;14.518;2022-12-05T05:14:20;100972.97;;;6.05;100.00
13695;BME280;6919;52.344;14.518;2022-12-05T05:16:48;100966.34;;;6.11;100.00
13695;BME280;6919;52.344;14.518;2022-12-05T05:19:16;100967.50;;;6.06;100.00
13695;BME280;6919;52.344;14.518;2022-12-05T05:21:44;100976.91;;;5.99;100.00
13695;BME280;6919;52.344;14.518;2022-12-05T05:24:15;100965.66;;;5.96;100.00
13695;BME280;6919;52.344;14.518;2022-12-05T05:26:45;100969.34;;;6.06;100.00
13695;BME280;6919;52.344;14.518;2022-12-05T05:29:19;100971.66;;;6.11;100.00
13695;BME280;6919;52.344;14.518;2022-12-05T05:31:48;100979.38;;;6.13;100.00
13695;BME280;6919;52.344;14.518;2022-12-05T05:34:16;100977.94;;;6.21;100.00
13695;BME280;6919;52.344;14.518;2022-12-05T05:36:44;100977.13;;;6.20;100.00
13695;BME280;6919;52.344;14.518;2022-12-05T05:39:14;100978.03;;;6.08;100.00
13695;BME280;6919;52.344;14.518;2022-12-05T05:41:43;100973.72;;;6.18;100.00
13695;BME280;6919;52.344;14.518;2022-12-05T05:44:11;100977.94;;;6.21;100.00
13695;BME280;6919;52.344;14.518;2022-12-05T05:46:39;100978.91;;;6.20;100.00
13695;BME280;6919;52.344;14.518;2022-12-05T05:49:09;100976.78;;;6.25;100.00
13695;BME280;6919;52.344;14.518;2022-12-05T05:51:37;100974.06;;;6.13;100.00
13695;BME280;6919;52.344;14.518;2022-12-05T05:54:05;100974.81;;;6.16;100.00
13695;BME280;6919;52.344;14.518;2022-12-05T05:56:35;100976.16;;;6.21;100.00
13695;BME280;6919;52.344;14.518;2022-12-05T05:59:03;100972.63;;;6.21;100.00
13695;BME280;6919;52.344;14.518;2022-12-05T06:01:31;100978.91;;;6.20;100.00
13695;BME280;6919;52.344;14.518;2022-12-05T06:04:00;100977.25;;;6.30;100.00
13695;BME280;6919;52.344;14.518;2022-12-05T06:06:28;100982.38;;;6.44;100.00
13695;BME280;6919;52.344;14.518;2022-12-05T06:08:57;100974.84;;;6.38;100.00
13695;BME280;6919;52.344;14.518;2022-12-05T06:11:26;100977.50;;;6.27;100.00
13695;BME280;6919;52.344;14.518;2022-12-05T06:13:58;100978.00;;;6.32;100.00
13695;BME280;6919;52.344;14.518;2022-12-05T06:16:29;100984.16;;;6.32;100.00
13695;BME280;6919;52.344;14.518;2022-12-05T06:18:58;100982.94;;;6.36;100.00
13695;BME280;6919;52.344;14.518;2022-12-05T06:21:26;100985.00;;;6.33;100.00
13695;BME280;6919;52.344;14.518;2022-12-05T06:23:55;100991.56;;;6.40;100.00
13695;BME280;6919;52.344;14.518;2022-12-05T06:26:23;100990.09;;;6.25;100.00
13695;BME280;6919;52.344;14.518;2022-12-05T06:28:53;100990.53;;;6.19;100.00
13695;BME280;6919;52.344;14.518;2022-12-05T06:31:24;100990.03;;;6.13;100.00
13695;BME280;6919;52.344;14.518;2022-12-05T06:33:59;100991.78;;;6.26;100.00
13695;BME280;6919;52.344;14.518;2022-12-05T06:36:29;100999.88;;;6.24;100.00
13695;BME280;6919;52.344;14.518;2022-12-05T06:38:59;101010.28;;;6.16;100.00
13695;BME280;6919;52.344;14.518;2022-12-05T06:41:27;101003.13;;;6.28;100.00
13695;BME280;6919;52.344;14.518;2022-12-05T06:43:57;100998.16;;;6.12;100.00
13695;BME280;6919;52.344;14.518;2022-12-05T06:46:30;100997.91;;;6.15;100.00
13695;BME280;6919;52.344;14.518;2022-12-05T06:48:58;100999.75;;;6.26;100.00
13695;BME280;6919;52.344;14.518;2022-12-05T06:51:27;100998.28;;;6.11;100.00
13695;BME280;6919;52.344;14.518;2022-12-05T06:53:55;100993.91;;;6.21;100.00
13695;BME280;6919;52.344;14.518;2022-12-05T06:56:23;100991.16;;;6.22;100.00
13695;BME280;6919;52.344;14.518;2022-12-05T06:58:52;100992.22;;;6.20;100.00
13695;BME280;6919;52.344;14.518;2022-12-05T07:01:23;100998.75;;;6.16;100.00
13695;BME280;6919;52.344;14.518;2022-12-05T07:04:15;101003.41;;;6.25;100.00
13695;BME280;6919;52.344;14.518;2022-12-05T07:06:45;101008.84;;;6.23;100.00
13695;BME280;6919;52.344;14.518;2022-12-05T07:09:20;101012.84;;;6.29;100.00
13695;BME280;6919;52.344;14.518;2022-12-05T07:11:49;101021.56;;;6.31;100.00
13695;BME280;6919;52.344;14.518;2022-12-05T07:14:18;101018.28;;;6.27;100.00
13695;BME280;6919;52.344;14.518;2022-12-05T07:17:07;101016.41;;;6.17;100.00
13695;BME280;6919;52.344;14.518;2022-12-05T07:19:36;101017.66;;;6.24;100.00
13695;BME280;6919;52.344;14.518;2022-12-05T07:22:05;101010.91;;;6.31;100.00
13695;BME280;6919;52.344;14.518;2022-12-05T07:24:41;101020.13;;;6.38;100.00
13695;BME280;6919;52.344;14.518;2022-12-05T07:27:09;101022.06;;;6.36;100.00
13695;BME280;6919;52.344;14.518;2022-12-05T07:29:37;101019.88;;;6.30;100.00
13695;BME280;6919;52.344;14.518;2022-12-05T07:32:06;101021.06;;;6.26;100.00
13695;BME280;6919;52.344;14.518;2022-12-05T07:34:36;101018.31;;;6.38;100.00
13695;BME280;6919;52.344;14.518;2022-12-05T07:37:05;101015.41;;;6.30;100.00
13695;BME280;6919;52.344;14.518;2022-12-05T07:39:34;101024.81;;;6.23;100.00
13695;BME280;6919;52.344;14.518;2022-12-05T07:42:02;101031.09;;;6.22;100.00
13695;BME280;6919;52.344;14.518;2022-12-05T07:44:30;101026.31;;;6.38;100.00
13695;BME280;6919;52.344;14.518;2022-12-05T07:46:59;101029.09;;;6.48;100.00
13695;BME280;6919;52.344;14.518;2022-12-05T07:49:27;101032.97;;;6.44;100.00
13695;BME280;6919;52.344;14.518;2022-12-05T07:51:57;101024.13;;;6.43;100.00
13695;BME280;6919;52.344;14.518;2022-12-05T07:54:25;101025.44;;;6.38;100.00
13695;BME280;6919;52.344;14.518;2022-12-05T07:56:53;101029.06;;;6.26;100.00
13695;BME280;6919;52.344;14.518;2022-12-05T07:59:21;101031.06;;;6.46;100.00
13695;BME280;6919;52.344;14.518;2022-12-05T08:01:49;101028.31;;;6.24;100.00
13695;BME280;6919;52.344;14.518;2022-12-05T08:04:18;101031.38;;;6.30;100.00
13695;BME280;6919;52.344;14.518;2022-12-05T08:06:46;101030.72;;;6.16;100.00
13695;BME280;6919;52.344;14.518;2022-12-05T08:09:16;101028.31;;;6.24;100.00
13695;BME280;6919;52.344;14.518;2022-12-05T08:11:45;101029.63;;;6.18;100.00
13695;BME280;6919;52.344;14.518;2022-12-05T08:14:19;101033.59;;;6.13;100.00
13695;BME280;6919;52.344;14.518;2022-12-05T08:16:47;101034.47;;;6.13;100.00
13695;BME280;6919;52.344;14.518;2022-12-05T08:19:16;101036.94;;;6.27;100.00
13695;BME280;6919;52.344;14.518;2022-12-05T08:21:44;101035.59;;;6.22;100.00
13695;BME280;6919;52.344;14.518;2022-12-05T08:24:14;101041.81;;;6.09;100.00
13695;BME280;6919;52.344;14.518;2022-12-05T08:26:43;101038.47;;;6.19;100.00
13695;BME280;6919;52.344;14.518;2022-12-05T08:29:14;101047.03;;;6.11;100.00
13695;BME280;6919;52.344;14.518;2022-12-05T08:31:45;101037.28;;;6.23;100.00
13695;BME280;6919;52.344;14.518;2022-12-05T08:34:15;101038.31;;;6.09;100.00
13695;BME280;6919;52.344;14.518;2022-12-05T08:36:44;101044.44;;;6.33;100.00
13695;BME280;6919;52.344;14.518;2022-12-05T08:39:16;101038.06;;;6.47;100.00
13695;BME280;6919;52.344;14.518;2022-12-05T08:41:46;101036.38;;;6.11;100.00
13695;BME280;6919;52.344;14.518;2022-12-05T08:44:15;101041.47;;;6.14;100.00
13695;BME280;6919;52.344;14.518;2022-12-05T08:46:46;101032.13;;;6.08;100.00
13695;BME280;6919;52.344;14.518;2022-12-05T08:49:17;101033.81;;;6.09;100.00
13695;BME280;6919;52.344;14.518;2022-12-05T08:51:45;101030.72;;;6.16;100.00
13695;BME280;6919;52.344;14.518;2022-12-05T08:54:16;101028.06;;;6.27;100.00
13695;BME280;6919;52.344;14.518;2022-12-05T08:56:44;101029.72;;;6.17;100.00
13695;BME280;6919;52.344;14.518;2022-12-05T08:59:12;101031.53;;;6.51;100.00
13695;BME280;6919;52.344;14.518;2022-12-05T09:01:41;101032.69;;;6.25;100.00
13695;BME280;6919;52.344;14.518;2022-12-05T09:04:09;101029.66;;;6.29;100.00
13695;BME280;6919;52.344;14.518;2022-12-05T09:06:39;101030.13;;;6.23;100.00
13695;BME280;6919;52.344;14.518;2022-12-05T09:09:10;101036.53;;;6.21;100.00
13695;BME280;6919;52.344;14.518;2022-12-05T09:11:42;101035.25;;;6.26;100.00
13695;BME280;6919;52.344;14.518;2022-12-05T09:14:17;101039.69;;;6.26;100.00
13695;BME280;6919;52.344;14.518;2022-12-05T09:16:46;101029.47;;;6.08;100.00
13695;BME280;6919;52.344;14.518;2022-12-05T09:19:17;101035.66;;;6.09;100.00
13695;BME280;6919;52.344;14.518;2022-12-05T09:21:47;101028.72;;;6.30;100.00
13695;BME280;6919;52.344;14.518;2022-12-05T09:24:15;101025.19;;;6.30;100.00
13695;BME280;6919;52.344;14.518;2022-12-05T09:26:45;101028.34;;;6.35;100.00
13695;BME280;6919;52.344;14.518;2022-12-05T09:29:14;101037.66;;;6.40;100.00
13695;BME280;6919;52.344;14.518;2022-12-05T09:31:46;101026.66;;;6.34;100.00
13695;BME280;6919;52.344;14.518;2022-12-05T09:34:17;101037.06;;;6.37;100.00
13695;BME280;6919;52.344;14.518;2022-12-05T09:36:47;101030.28;;;6.33;100.00
13695;BME280;6919;52.344;14.518;2022-12-05T09:39:27;101032.97;;;6.44;100.00
13695;BME280;6919;52.344;14.518;2022-12-05T09:42:22;101030.63;;;6.28;100.00
13695;BME280;6919;52.344;14.518;2022-12-05T09:45:06;101036.81;;;6.29;100.00
13695;BME280;6919;52.344;14.518;2022-12-05T09:47:50;101035.88;;;6.41;100.00
13695;BME280;6919;52.344;14.518;2022-12-05T09:50:24;101035.06;;;6.17;100.00
13695;BME280;6919;52.344;14.518;2022-12-05T09:53:14;101035.63;;;6.33;100.00
13695;BME280;6919;52.344;14.518;2022-12-05T09:55:48;101029.09;;;6.48;100.00
13695;BME280;6919;52.344;14.518;2022-12-05T09:58:29;101031.47;;;6.85;100.00
13695;BME280;6919;52.344;14.518;2022-12-05T10:01:11;101024.31;;;6.86;100.00
13695;BME280;6919;52.344;14.518;2022-12-05T10:04:01;101023.66;;;6.49;100.00
13695;BME280;6919;52.344;14.518;2022-12-05T10:06:39;101016.97;;;6.33;100.00
13695;BME280;6919;52.344;14.518;2022-12-05T10:09:26;101022.31;;;6.44;100.00
13695;BME280;6919;52.344;14.518;2022-12-05T10:12:04;101012.63;;;6.43;100.00
13695;BME280;6919;52.344;14.518;2022-12-05T10:14:51;101020.91;;;6.62;100.00
13695;BME280;6919;52.344;14.518;2022-12-05T10:17:27;101017.03;;;7.21;100.00
13695;BME280;6919;52.344;14.518;2022-12-05T10:20:03;101007.13;;;6.90;100.00
13695;BME280;6919;52.344;14.518;2022-12-05T10:22:43;101006.38;;;6.88;100.00
13695;BME280;6919;52.344;14.518;2022-12-05T10:25:18;100998.75;;;6.83;100.00
13695;BME280;6919;52.344;14.518;2022-12-05T10:27:51;100999.47;;;6.74;100.00
13695;BME280;6919;52.344;14.518;2022-12-05T10:30:23;101002.50;;;6.70;100.00
13695;BME280;6919;52.344;14.518;2022-12-05T10:32:55;101000.56;;;6.61;100.00
13695;BME280;6919;52.344;14.518;2022-12-05T10:35:26;100999.72;;;6.71;100.00
13695;BME280;6919;52.344;14.518;2022-12-05T10:37:57;101000.34;;;6.75;100.00
13695;BME280;6919;52.344;14.518;2022-12-05T10:40:32;100991.84;;;6.70;100.00
13695;BME280;6919;52.344;14.518;2022-12-05T10:43:03;100996.44;;;6.68;100.00
13695;BME280;6919;52.344;14.518;2022-12-05T10:45:34;100994.41;;;7.04;100.00
13695;BME280;6919;52.344;14.518;2022-12-05T10:48:04;101002.75;;;7.00;100.00
13695;BME280;6919;52.344;14.518;2022-12-05T10:50:36;100997.41;;;6.67;100.00
13695;BME280;6919;52.344;14.518;2022-12-05T10:53:06;100987.22;;;6.50;100.00
13695;BME280;6919;52.344;14.518;2022-12-05T10:55:43;100991.13;;;6.57;100.00
13695;BME280;6919;52.344;14.518;2022-12-05T10:58:32;100987.72;;;6.55;100.00
13695;BME280;6919;52.344;14.518;2022-12-05T11:01:08;100986.84;;;6.54;100.00
13695;BME280;6919;52.344;14.518;2022-12-05T11:03:39;100984.56;;;6.50;100.00
13695;BME280;6919;52.344;14.518;2022-12-05T11:06:15;100982.03;;;6.48;100.00
13695;BME280;6919;52.344;14.518;2022-12-05T11:08:52;100985.50;;;6.38;100.00
13695;BME280;6919;52.344;14.518;2022-12-05T11:11:32;100993.25;;;6.52;100.00
13695;BME280;6919;52.344;14.518;2022-12-05T11:14:03;100989.66;;;6.64;100.00
13695;BME280;6919;52.344;14.518;2022-12-05T11:16:36;100992.56;;;6.61;100.00
13695;BME280;6919;52.344;14.518;2022-12-05T11:19:25;100989.28;;;6.68;100.00
13695;BME280;6919;52.344;14.518;2022-12-05T11:21:54;100986.16;;;6.63;100.00
13695;BME280;6919;52.344;14.518;2022-12-05T11:24:27;100985.56;;;6.71;100.00
13695;BME280;6919;52.344;14.518;2022-12-05T11:26:58;100991.34;;;6.76;100.00
13695;BME280;6919;52.344;14.518;2022-12-05T11:29:31;100986.63;;;6.68;100.00
13695;BME280;6919;52.344;14.518;2022-12-05T11:32:02;100986.50;;;6.81;100.00
13695;BME280;6919;52.344;14.518;2022-12-05T11:34:37;100983.47;;;6.74;100.00
13695;BME280;6919;52.344;14.518;2022-12-05T11:37:13;100993.78;;;6.68;100.00
13695;BME280;6919;52.344;14.518;2022-12-05T11:39:44;100987.94;;;6.74;100.00
13695;BME280;6919;52.344;14.518;2022-12-05T11:42:23;100986.03;;;6.54;100.00
13695;BME280;6919;52.344;14.518;2022-12-05T11:45:25;100979.59;;;6.56;100.00
13695;BME280;6919;52.344;14.518;2022-12-05T11:48:24;100986.34;;;6.38;100.00
13695;BME280;6919;52.344;14.518;2022-12-05T11:51:19;100985.56;;;6.71;100.00
13695;BME280;6919;52.344;14.518;2022-12-05T11:54:13;100979.50;;;6.69;100.00
13695;BME280;6919;52.344;14.518;2022-12-05T11:57:17;100978.16;;;6.63;100.00
13695;BME280;6919;52.344;14.518;2022-12-05T12:00:14;100982.63;;;6.52;100.00
13695;BME280;6919;52.344;14.518;2022-12-05T12:03:33;100972.09;;;6.61;100.00
13695;BME280;6919;52.344;14.518;2022-12-05T12:06:24;100963.25;;;6.61;100.00
13695;BME280;6919;52.344;14.518;2022-12-05T12:09:22;100971.25;;;6.61;100.00
13695;BME280;6919;52.344;14.518;2022-12-05T12:12:03;100971.00;;;6.97;100.00
13695;BME280;6919;52.344;14.518;2022-12-05T12:14:43;100970.88;;;6.98;100.00
13695;BME280;6919;52.344;14.518;2022-12-05T12:17:24;100970.75;;;6.67;100.00
13695;BME280;6919;52.344;14.518;2022-12-05T12:20:17;100960.81;;;6.47;100.00
13695;BME280;6919;52.344;14.518;2022-12-05T12:23:01;100963.84;;;6.53;100.00
13695;BME280;6919;52.344;14.518;2022-12-05T12:25:42;100951.63;;;6.51;100.00
13695;BME280;6919;52.344;14.518;2022-12-05T12:28:31;100949.44;;;6.56;100.00
13695;BME280;6919;52.344;14.518;2022-12-05T12:31:27;100954.28;;;6.73;100.00
13695;BME280;6919;52.344;14.518;2022-12-05T12:34:14;100953.69;;;6.80;100.00
13695;BME280;6919;52.344;14.518;2022-12-05T12:36:55;100945.06;;;6.77;100.00
13695;BME280;6919;52.344;14.518;2022-12-05T12:39:43;100942.25;;;7.00;100.00
13695;BME280;6919;52.344;14.518;2022-12-05T12:42:23;100942.16;;;6.91;100.00
13695;BME280;6919;52.344;14.518;2022-12-05T12:45:24;100943.63;;;6.84;100.00
13695;BME280;6919;52.344;14.518;2022-12-05T12:48:16;100940.94;;;6.84;100.00
13695;BME280;6919;52.344;14.518;2022-12-05T12:50:52;100947.75;;;6.77;100.00
13695;BME280;6919;52.344;14.518;2022-12-05T12:53:59;100941.09;;;6.71;100.00
13695;BME280;6919;52.344;14.518;2022-12-05T12:56:41;100944.25;;;6.65;100.00
13695;BME280;6919;52.344;14.518;2022-12-05T12:59:41;100951.03;;;6.58;100.00
13695;BME280;6919;52.344;14.518;2022-12-05T13:02:17;100944.09;;;6.56;100.00
13695;BME280;6919;52.344;14.518;2022-12-05T13:04:53;100945.81;;;6.68;100.00
13695;BME280;6919;52.344;14.518;2022-12-05T13:07:31;100933.44;;;6.56;100.00
13695;BME280;6919;52.344;14.518;2022-12-05T13:10:12;100935.41;;;6.54;100.00
13695;BME280;6919;52.344;14.518;2022-12-05T13:12:45;100940.50;;;6.57;100.00
13695;BME280;6919;52.344;14.518;2022-12-05T13:15:18;100930.66;;;6.57;100.00
13695;BME280;6919;52.344;14.518;2022-12-05T13:17:50;100923.53;;;6.58;100.00
13695;BME280;6919;52.344;14.518;2022-12-05T13:20:24;100940.00;;;6.63;100.00
13695;BME280;6919;52.344;14.518;2022-12-05T13:22:55;100942.41;;;6.77;100.00
13695;BME280;6919;52.344;14.518;2022-12-05T13:25:33;100939.16;;;6.62;100.00
13695;BME280;6919;52.344;14.518;2022-12-05T13:28:18;100942.66;;;6.74;100.00
13695;BME280;6919;52.344;14.518;2022-12-05T13:30:52;100937.94;;;6.66;100.00